Pahrump, Nevada Weather observations

Data are for observation ending at time listed.
 Day   Time    Ave.   Ave.  Ave.  Vector   Max.   Stn.    Total    Solar   Ave.  
  of    of     Air    Rel.  Wind   Wind    Wind   Baro.  Precip.   Rad.    Soil  
Year   Day     Temp.  Hum.  Speed  Dir.    Gust   Pres.                    Temp. 
2026   (PST)    F      %     mph   deg.    mph     mb.     in.     W/m2     F   
------------------------------------------------------------------------------
 124   17:50   69.2    20    3.7   214     10.1   915.4    0.00     140    82.0
 124   18:00   69.1    21    3.3   218      7.6   915.3    0.00     109    81.9
 124   18:10   68.3    22    3.4   212     10.0   915.3    0.00      80    81.7
 124   18:20   67.8    23    3.6   210     11.5   915.2    0.00      52    81.6
 124   18:30   66.9    24    4.0   206      9.1   915.1    0.00      20    81.4
 124   18:40   65.9    25    3.1   223      8.1   915.1    0.00       5    81.2
 124   18:50   65.1    26    3.2   214      6.9   915.0    0.00       2    80.9
 124   19:00   64.7    27    2.9   218      7.6   915.0    0.00       0    80.7
 124   19:10   64.3    27    3.0   216      8.3   914.9    0.00       0    80.4
 124   19:20   64.1    28    3.4   216      8.5   914.9    0.00       0    80.1
 124   19:30   63.7    27    3.9   210     10.4   914.9    0.00       0    79.8
 124   19:40   63.3    28    3.0   218      8.4   915.0    0.00       0    79.6
 124   19:50   62.9    29    1.9   208      7.2   915.1    0.00       0    79.4
 124   20:00   62.9    30    3.6   204      7.7   915.3    0.00       0    79.1
 124   20:10   62.6    30    3.0   210      8.0   915.5    0.00       0    78.9
 124   20:20   62.5    31    0.0   207      0.1   915.7    0.00       0    78.6
 124   20:30   62.0    32    0.0   219      0.1   915.8    0.00       0    78.4
 124   20:40   61.7    32    0.0   202      0.1   915.9    0.00       0    78.2
 124   20:50   61.5    33    0.0   201      0.1   915.9    0.00       0    77.9
 124   21:00   61.0    34    0.6   214      4.7   916.0    0.00       0    77.7
 124   21:10   60.7    34    2.5   183      6.0   915.9    0.00       0    77.5
 124   21:20   60.8    34    3.1   165      7.2   915.9    0.00       0    77.3
 124   21:30   60.6    34    3.8   161      8.0   915.9    0.00       0    77.1
 124   21:40   60.4    35    4.7   164     12.2   916.0    0.00       0    76.9
 124   21:50   60.4    36    5.3   174     11.5   916.1    0.00       0    76.7
 124   22:00   60.3    35    6.3   168     12.5   915.9    0.00       0    76.6
 124   22:10   60.0    36    5.4   178     10.4   916.0    0.00       0    76.4
 124   22:20   59.8    36    5.0   170     10.1   916.1    0.00       0    76.2
 124   22:30   59.3    38    5.7   166      9.1   916.2    0.00       0    76.0
 124   22:40   59.0    38    4.9   164      9.8   916.2    0.00       0    75.8
 124   22:50   58.8    37    6.2   162     11.3   916.2    0.00       0    75.7
 124   23:00   58.5    37    5.0   173      9.7   916.2    0.00       0    75.5
 124   23:10   58.0    37    4.1   175      8.1   916.3    0.00       0    75.4
 124   23:20   57.7    39    4.7   181      9.3   916.2    0.00       0    75.2
 124   23:30   57.3    40    3.8   162      6.7   916.2    0.00       0    75.1
 124   23:40   57.0    43    4.1   177      7.7   916.0    0.00       0    74.9
 124   23:50   56.5    44    1.1   206      5.0   916.0    0.00       0    74.8
 125    0:00   56.3    42    2.2   155      4.7   915.8    0.00       0    74.6
 125    0:10   56.0    42    2.3   182      6.1   915.6    0.00       0    74.4
 125    0:20   56.7    41    5.7   183      9.5   915.4    0.00       0    74.3
 125    0:30   56.3    41    6.1   179      9.9   915.3    0.00       0    74.1
 125    0:40   56.5    41    6.7   181     11.5   915.3    0.00       0    74.0
 125    0:50   56.3    42    6.3   173     13.3   915.3    0.00       0    73.8
 125    1:00   55.7    43    4.7   156      8.8   915.3    0.00       0    73.7
 125    1:10   55.7    43    5.9   144     10.7   915.2    0.00       0    73.5
 125    1:20   54.9    44    8.0   140     11.3   915.1    0.00       0    73.4
 125    1:30   55.3    44    6.9   151     13.2   915.0    0.00       0    73.3
 125    1:40   55.9    44    4.9   162      9.7   915.0    0.00       0    73.1
 125    1:50   55.9    45    6.8   169     14.4   915.0    0.00       0    73.0
 125    2:00   55.3    48    8.0   177     14.8   914.9    0.00       0    72.9
 125    2:10   54.7    50    8.6   159     16.1   914.9    0.00       0    72.8
 125    2:20   54.6    51    7.6   163     14.0   914.9    0.00       0    72.6
 125    2:30   54.1    52    7.4   169     14.2   914.8    0.00       0    72.5
 125    2:40   53.7    53    0.7   178      8.0   914.8    0.00       0    72.4
 125    2:50   53.4    53    6.3   169     11.3   914.7    0.00       0    72.3
 125    3:00   53.0    53    7.8   155     12.3   914.7    0.00       0    72.1
 125    3:10   52.9    52    3.8   174      9.6   914.6    0.00       0    72.0
 125    3:20   52.6    52    4.7   182      8.7   914.6    0.00       0    71.9
 125    3:30   52.4    52    2.3   176      6.1   914.6    0.00       0    71.8
 125    3:40   52.7    50    0.2   162      3.9   914.7    0.00       0    71.7
 125    3:50   52.9    50    0.0   207      2.3   914.6    0.00       0    71.6
 125    4:00   52.8    52    6.4   173     10.8   914.4    0.00       0    71.5
 125    4:10   52.8    52    6.3   171     10.4   914.4    0.00       0    71.3
 125    4:20   52.6    52    6.1   170     11.2   914.4    0.00       0    71.2
 125    4:30   52.7    52    6.1   172     11.2   914.4    0.00       0    71.1
 125    4:40   52.7    52    5.6   173     11.2   914.3    0.00       1    71.0
 125    4:50   52.7    52    0.0   174      0.1   914.3    0.00       4    70.9
 125    5:00   52.7    52    0.0   167      0.1   914.4    0.00       8    70.8
 125    5:10   52.5    53    0.0   167      0.1   914.5    0.00      13    70.7
 125    5:20   52.6    53    0.5   159      8.7   914.6    0.00      29    70.5
 125    5:30   53.7    52    2.0   164     14.2   914.7    0.00      66    70.4
 125    5:40   54.0    52    0.0   134      0.1   914.9    0.00      92    70.3
 125    5:50   54.2    52    4.6   157     12.7   915.0    0.00     110    70.3
 125    6:00   54.4    52    3.1   149     12.9   915.2    0.00     146    70.2
 125    6:10   54.7    52    1.9   158     12.5   915.4    0.00     176    70.1
 125    6:20   55.5    51    4.7   164     13.0   915.6    0.00     207    70.0
 125    6:30   55.5    51    5.2   164     12.9   915.6    0.00     238    70.0
 125    6:40   55.6    51    5.4   167     12.6   915.7    0.00     270    69.9
 125    6:50   55.8    51    7.3   168     13.0   915.8    0.00     308    69.9
 125    7:00   56.3    50    6.4   168     12.6   916.0    0.00     338    69.8
 125    7:10   56.4    49    7.5   170     13.2   916.2    0.00     285    69.8
 125    7:20   56.9    49    6.4   168     12.6   916.3    0.00     327    69.7
 125    7:30   57.4    48    5.7   168     11.5   916.4    0.00     311    69.7
 125    7:40   56.7    49    5.0   162     11.9   916.4    0.00     267    69.7
 125    7:50   57.2    47    3.1   186     11.3   916.4    0.00     342    69.7
 125    8:00   58.0    46    3.9   196     11.4   916.5    0.00     380    69.7
 125    8:10   58.7    45    1.5   183     10.2   916.6    0.00     514    69.7
 125    8:20   59.5    43    0.1   159      3.6   916.7    0.00     480    69.7
 125    8:30   59.5    44    0.0   245      0.1   916.8    0.00     461    69.8
 125    8:40   58.9    45    1.8   268      6.0   916.9    0.00     387    70.0
 125    8:50   58.8    44    2.2   297      5.7   917.0    0.00     425    70.1
 125    9:00   59.2    44    3.3   266      6.3   917.1    0.00     639    70.4
 125    9:10   60.1    42    3.8   304      7.0   917.2    0.00     825    70.6
 125    9:20   61.5    40    1.5   320      5.0   917.3    0.00     871    70.8
 125    9:30   62.3    39    0.0   276      0.1   917.5    0.00     862    71.1
 125    9:40   62.3    38    0.0   304      0.1   917.7    0.00     764    71.3
 125    9:50   61.6    39    0.1   262      3.6   917.8    0.00     819    71.7
 125   10:00   62.0    39    0.1   286      0.1   917.9    0.00     904    72.1
 125   10:10   63.1    38    0.8   197      6.7   917.9    0.00     939    72.6
 125   10:20   63.7    36    4.7   232      9.9   918.0    0.00     992    73.0
 125   10:30   62.9    36    3.0   270      8.7   918.1    0.00     562    73.5
 125   10:40   63.4    35    2.8   305      8.6   918.0    0.00     656    74.0
 125   10:50   65.0    33    3.4   227      6.9   917.9    0.00     857    74.6
 125   11:00   64.7    32    3.4   226      7.7   917.9    0.00     938    75.0
 125   11:10   65.6    30    3.9   280      9.3   917.9    0.00     996    75.5
 125   11:20   65.5    30    3.5   234      7.9   918.0    0.00     598    75.9
 125   11:30   64.9    30    2.1   166      9.1   918.1    0.00     600    76.3
 125   11:40   66.2    28    3.3   270      8.3   918.0    0.00     942    76.6
 125   11:50   67.4    27    3.3   299      8.7   917.9    0.00    1026    77.0
 125   12:00   68.7    27    1.5   208      7.7   918.0    0.00     850    77.2
 125   12:10   68.0    29    2.0   251      6.4   918.1    0.00     712    77.5
 125   12:20   66.3    31    3.7   264      9.9   918.1    0.00     723    77.8
 125   12:30   67.1    29    2.2    52      6.3   918.0    0.00     455    78.1
 125   12:40   67.3    30    2.7   199      5.9   917.8    0.00     643    78.3
 125   12:50   68.5    29    3.9   256      9.1   917.7    0.00     919    78.5
 125   13:00   69.3    28    4.4   306      9.9   917.8    0.00     954    78.7
 125   13:10   70.1    27    3.6   345      8.8   917.9    0.00     651    78.9
 125   13:20   69.2    28    2.2   272      6.1   917.9    0.00     492    79.1
 125   13:30   69.2    28    4.1   299      7.4   917.7    0.00     809    79.3
 125   13:40   69.4    28    3.2   303      9.1   917.6    0.00     715    79.5
 125   13:50   70.2    27    1.5   339      4.7   917.5    0.00     896    79.6
 125   14:00   72.9    25    0.6   183      5.0   917.4    0.00     858    79.7
 125   14:10   73.2    24    0.1   296      0.1   917.5    0.00     873    79.7
 125   14:20   70.9    26    0.3   267      9.3   917.5    0.00     869    79.6
 125   14:30   70.8    26    0.1   275      0.1   917.4    0.00     806    79.5
 125   14:40   71.0    26    0.1   280      0.1   917.3    0.00     747    79.4
 125   14:50   71.1    26    1.2   348      6.1   917.2    0.00     728    79.3
 125   15:00   70.9    26    4.7    16      9.9   917.0    0.00     696    79.2
 125   15:10   71.2    26    4.1   274      9.9   916.9    0.00     679    79.2
 125   15:20   71.7    26    3.3   224      7.7   916.8    0.00     628    79.2
 125   15:30   72.2    25    4.3   266      9.8   916.7    0.00     607    79.4
 125   15:40   71.4    26    4.0   238      8.8   916.7    0.00     576    79.7
 125   15:50   71.7    25    3.6   283      9.6   916.7    0.00     543    80.0
 125   16:00   72.9    24    1.1   336      4.7   916.7    0.00     514    80.3
 125   16:10   73.1    24    2.7   289      5.4   916.8    0.00     488    80.5
 125   16:20   72.2    25    4.2   283      9.9   916.8    0.00     446    80.8
 125   16:30   72.1    24    5.5   295     12.6   916.8    0.00     410    81.0
 125   16:40   71.3    25    5.6   304     10.7   916.8    0.00     355    81.2
 125   16:50   71.5    25    5.0   279      8.7   916.8    0.00     340    81.3
 125   17:00   70.9    25    3.4   274      6.6   916.7    0.00     301    81.4
 125   17:10   71.5    25    2.8   241      5.5   916.7    0.00     271    81.5
 125   17:20   71.5    25    3.1   216      6.6   916.7    0.00     241    81.5
 125   17:30   70.4    26    1.7   252      7.6   916.6    0.00     206    81.5
 125   17:40   70.3    26    0.0   226      0.1   916.6    0.00     143    81.4

Return to Pahrump, Nevada graphs page.


Western Regional Climate Center,wrcc@dri.edu